Time;durP1;ratioP1;P1;durP2;ratioP2;P2;SDS_P1;SDS_P2;PMS_P1;PMS_P2;Temp;Humidity;BMP_temperature;BMP_pressure;BME280_temperature;BME280_humidity;BME280_pressure;Samples;Min_cycle;Max_cycle;Signal;HPM_P1;HPM_P2
2022/04/29 00:00:42;;;;;;;12.48;6.15;;;;;;;10.43;68.33;102796.72;4821252;29;20147;-72
2022/04/29 00:03:08;;;;;;;14.20;6.03;;;;;;;10.44;68.44;102805.69;4824096;29;20386;-72
2022/04/29 00:05:35;;;;;;;14.85;6.00;;;;;;;10.36;68.84;102801.16;4823495;29;20041;-71
2022/04/29 00:08:02;;;;;;;12.38;6.10;;;;;;;10.35;69.19;102804.03;4823396;29;20030;-72
2022/04/29 00:10:28;;;;;;;16.15;6.47;;;;;;;10.30;68.82;102801.81;4823813;29;20547;-71
2022/04/29 00:12:54;;;;;;;9.27;5.63;;;;;;;10.31;68.88;102795.41;4823487;29;20074;-73
2022/04/29 00:15:20;;;;;;;12.88;6.05;;;;;;;10.28;69.28;102784.91;4807318;29;20399;-71
2022/04/29 00:17:45;;;;;;;15.23;6.07;;;;;;;10.30;68.97;102782.88;4813946;29;20055;-69
2022/04/29 00:20:11;;;;;;;14.25;6.20;;;;;;;10.24;69.38;102778.19;4789379;29;20361;-71
2022/04/29 00:22:37;;;;;;;14.30;5.85;;;;;;;10.24;69.05;102789.00;4805430;29;20443;-72
2022/04/29 00:25:04;;;;;;;13.45;6.30;;;;;;;10.18;69.85;102785.13;4789098;29;20038;-72
2022/04/29 00:27:29;;;;;;;17.05;6.22;;;;;;;10.14;69.46;102782.94;4812248;29;20447;-73
2022/04/29 00:29:55;;;;;;;12.98;6.10;;;;;;;10.17;69.37;102783.44;4823364;29;20046;-73
2022/04/29 00:32:22;;;;;;;13.32;6.22;;;;;;;10.14;69.70;102782.94;4823789;29;20476;-71
2022/04/29 00:34:48;;;;;;;11.93;6.15;;;;;;;10.07;69.93;102782.78;4823476;29;20066;-70
2022/04/29 00:37:44;;;;;;;18.42;6.63;;;;;;;10.04;69.53;102784.00;4818718;29;20058;-74
2022/04/29 00:40:13;;;;;;;15.32;6.30;;;;;;;9.88;71.00;102784.03;4792542;29;20062;-71
2022/04/29 00:42:38;;;;;;;16.92;6.78;;;;;;;9.88;70.79;102776.75;4805450;29;20035;-70
2022/04/29 00:45:03;;;;;;;17.30;6.28;;;;;;;9.88;70.55;102767.81;4805338;29;20095;-72
2022/04/29 00:47:29;;;;;;;14.15;6.40;;;;;;;9.84;70.42;102777.28;4794772;29;20042;-73
2022/04/29 00:49:54;;;;;;;11.98;6.55;;;;;;;9.87;71.36;102768.81;4823545;29;20049;-70
2022/04/29 00:52:21;;;;;;;11.63;7.03;;;;;;;9.88;70.62;102767.81;4823079;29;20042;-71
2022/04/29 00:54:54;;;;;;;11.52;6.47;;;;;;;9.81;71.28;102772.22;4806749;29;20065;-72
2022/04/29 00:57:25;;;;;;;14.63;7.13;;;;;;;9.70;71.09;102774.25;4801883;29;20039;-71
2022/04/29 01:00:08;;;;;;;18.30;6.93;;;;;;;9.69;70.22;102775.28;4806156;29;20062;-71
2022/04/29 01:02:37;;;;;;;15.35;6.28;;;;;;;9.60;71.60;102776.28;4806654;29;20042;-71
2022/04/29 01:05:05;;;;;;;13.82;6.25;;;;;;;9.56;72.15;102774.97;4792836;29;20077;-72
2022/04/29 01:07:32;;;;;;;18.40;7.30;;;;;;;9.53;71.67;102764.50;4826563;29;20069;-70
2022/04/29 01:09:58;;;;;;;16.83;6.80;;;;;;;9.48;72.15;102770.44;4826364;29;20041;-71
2022/04/29 01:12:25;;;;;;;15.57;6.35;;;;;;;9.48;71.37;102764.16;4826363;29;20034;-71
2022/04/29 01:14:55;;;;;;;14.15;6.40;;;;;;;9.42;72.24;102767.53;4809584;29;20038;-73
2022/04/29 01:17:21;;;;;;;18.17;7.07;;;;;;;9.42;72.00;102764.84;4808290;29;20039;-71
2022/04/29 01:19:46;;;;;;;19.75;6.90;;;;;;;9.44;72.29;102755.56;4808187;29;20042;-73
2022/04/29 01:22:12;;;;;;;15.25;6.30;;;;;;;9.34;71.88;102753.03;4808572;29;20499;-72
2022/04/29 01:24:37;;;;;;;14.63;6.63;;;;;;;9.30;72.05;102749.00;4823408;29;20562;-73
2022/04/29 01:27:10;;;;;;;13.35;6.60;;;;;;;9.29;72.37;102741.88;4826317;29;20069;-70
2022/04/29 01:29:39;;;;;;;14.50;6.18;;;;;;;9.27;71.85;102738.53;4810090;29;20043;-71
2022/04/29 01:32:08;;;;;;;14.20;6.75;;;;;;;9.23;72.45;102737.16;4826352;29;20034;-72
2022/04/29 01:34:33;;;;;;;14.70;6.38;;;;;;;9.17;72.59;102733.28;4811342;29;20047;-72
2022/04/29 01:36:58;;;;;;;14.52;6.93;;;;;;;9.12;72.25;102730.25;4807988;29;20088;-69
2022/04/29 01:39:24;;;;;;;15.45;7.05;;;;;;;9.09;72.59;102729.72;4808239;29;20037;-72
2022/04/29 01:41:49;;;;;;;13.95;6.25;;;;;;;9.05;72.82;102726.53;4808203;29;20035;-72
2022/04/29 01:44:14;;;;;;;12.15;6.03;;;;;;;9.04;72.43;102728.41;4807037;29;20034;-71
2022/04/29 01:46:39;;;;;;;17.10;7.10;;;;;;;9.03;72.63;102724.00;4807477;29;20540;-68
2022/04/29 01:49:05;;;;;;;13.75;6.55;;;;;;;8.91;73.42;102721.78;4808272;29;20045;-70
2022/04/29 01:51:30;;;;;;;11.50;6.72;;;;;;;8.93;72.83;102727.88;4807971;29;20041;-72
2022/04/29 01:53:55;;;;;;;9.70;6.07;;;;;;;8.96;72.56;102720.28;4797868;29;20063;-69
2022/04/29 01:56:32;;;;;;;13.82;6.53;;;;;;;9.00;72.72;102724.34;4789886;30;20146;-71
2022/04/29 01:58:58;;;;;;;12.38;6.90;;;;;;;9.02;72.19;102729.56;4789757;30;20114;-73
2022/04/29 02:01:23;;;;;;;14.88;7.00;;;;;;;8.98;72.66;102723.69;4787399;30;20123;-69
2022/04/29 02:03:48;;;;;;;12.65;6.55;;;;;;;8.93;73.04;102728.72;4797576;29;20045;-69
2022/04/29 02:06:14;;;;;;;12.77;6.55;;;;;;;8.90;73.06;102726.34;4791222;29;20042;-72
2022/04/29 02:08:39;;;;;;;11.63;6.15;;;;;;;8.88;73.46;102728.38;4807466;29;20035;-73
2022/04/29 02:11:05;;;;;;;12.65;6.63;;;;;;;8.85;73.33;102718.75;4806944;29;20388;-70
2022/04/29 02:13:31;;;;;;;19.27;7.25;;;;;;;8.84;73.29;102722.47;4796833;29;20391;-68
2022/04/29 02:15:57;;;;;;;12.38;6.75;;;;;;;8.78;73.78;102727.69;4817089;29;20034;-70
2022/04/29 02:18:22;;;;;;;13.52;6.55;;;;;;;8.77;73.75;102726.00;4807428;29;20526;-72
2022/04/29 02:20:49;;;;;;;15.60;7.18;;;;;;;8.68;74.02;102717.91;4790737;29;20476;-71
2022/04/29 02:23:14;;;;;;;11.50;6.68;;;;;;;8.64;73.81;102715.72;4818279;29;20039;-69
2022/04/29 02:25:40;;;;;;;13.30;7.40;;;;;;;8.62;74.33;102723.97;4824360;29;20049;-74
2022/04/29 02:28:05;;;;;;;16.65;7.30;;;;;;;8.62;73.93;102723.09;4823819;29;20118;-70
2022/04/29 02:30:32;;;;;;;14.35;7.53;;;;;;;8.58;74.60;102710.97;4825123;29;20045;-73
2022/04/29 02:32:58;;;;;;;11.20;6.50;;;;;;;8.58;74.28;102713.69;4824578;29;20041;-71
2022/04/29 02:35:23;;;;;;;15.35;7.28;;;;;;;8.58;74.22;102716.38;4825174;29;20030;-70
2022/04/29 02:37:48;;;;;;;18.88;7.55;;;;;;;8.61;74.31;102719.56;4824850;29;20074;-73
2022/04/29 02:40:14;;;;;;;16.45;6.82;;;;;;;8.58;74.00;102717.22;4825254;29;20074;-72
2022/04/29 02:42:39;;;;;;;13.00;6.40;;;;;;;8.58;73.75;102711.81;4808946;29;20031;-72
2022/04/29 02:45:05;;;;;;;16.15;7.30;;;;;;;8.56;74.05;102707.59;4807761;29;20034;-73
2022/04/29 02:47:31;;;;;;;11.93;7.22;;;;;;;8.57;74.91;102717.38;4806969;29;20035;-70
2022/04/29 02:49:57;;;;;;;14.27;7.25;;;;;;;8.51;74.88;102710.78;4806537;29;20035;-73
2022/04/29 02:52:23;;;;;;;17.42;7.10;;;;;;;8.51;74.28;102714.34;4790567;29;20042;-73
2022/04/29 02:54:48;;;;;;;14.05;7.63;;;;;;;8.49;74.70;102712.81;4821360;29;20471;-71
2022/04/29 02:57:13;;;;;;;14.27;7.38;;;;;;;8.48;74.44;102717.38;4825039;29;20035;-71
2022/04/29 02:59:39;;;;;;;19.33;8.90;;;;;;;8.48;74.87;102709.28;4808499;29;20493;-73
2022/04/29 03:02:04;;;;;;;14.50;7.13;;;;;;;8.54;73.85;102707.75;4806106;29;20472;-73
2022/04/29 03:04:29;;;;;;;18.55;7.85;;;;;;;8.53;73.79;102708.78;4812370;29;20487;-69
2022/04/29 03:06:55;;;;;;;15.15;7.15;;;;;;;8.50;74.27;102701.03;4806314;29;20070;-72
2022/04/29 03:09:24;;;;;;;17.67;7.38;;;;;;;8.43;75.43;102698.09;4806298;29;20106;-73
2022/04/29 03:11:49;;;;;;;14.88;8.30;;;;;;;8.47;75.01;102693.22;4806100;29;20470;-72
2022/04/29 03:14:15;;;;;;;17.33;7.82;;;;;;;8.45;75.02;102679.91;4816594;29;20057;-73
2022/04/29 03:16:40;;;;;;;21.13;8.02;;;;;;;8.41;75.37;102683.94;4824729;29;20049;-71
2022/04/29 03:19:06;;;;;;;15.77;7.57;;;;;;;8.37;75.10;102674.47;4824519;29;20082;-72
2022/04/29 03:21:33;;;;;;;18.90;8.15;;;;;;;8.39;74.45;102674.31;4824628;29;20041;-72
2022/04/29 03:23:58;;;;;;;17.35;8.45;;;;;;;8.45;75.07;102676.38;4799501;29;20050;-71
2022/04/29 03:26:24;;;;;;;15.90;7.82;;;;;;;8.40;74.89;102684.09;4806392;29;20117;-71
2022/04/29 03:28:49;;;;;;;16.67;8.60;;;;;;;8.26;75.58;102691.81;4806179;29;20030;-72
2022/04/29 03:31:15;;;;;;;14.35;8.10;;;;;;;8.18;75.22;102683.69;4805961;29;20043;-71
2022/04/29 03:33:40;;;;;;;13.18;7.75;;;;;;;8.22;75.50;102687.75;4811649;29;20126;-71
2022/04/29 03:36:06;;;;;;;14.27;7.72;;;;;;;8.25;75.47;102692.81;4823990;29;20030;-71
2022/04/29 03:38:32;;;;;;;17.38;8.90;;;;;;;8.27;75.07;102700.75;4793334;29;20559;-69
2022/04/29 03:40:58;;;;;;;17.63;8.80;;;;;;;8.22;75.04;102701.22;4807681;29;20516;-70
2022/04/29 03:43:24;;;;;;;19.08;9.05;;;;;;;8.22;75.59;102706.63;4820967;29;20042;-71
2022/04/29 03:45:50;;;;;;;16.35;8.50;;;;;;;8.19;75.63;102696.16;4789653;29;20070;-70
2022/04/29 03:48:16;;;;;;;17.48;9.02;;;;;;;8.21;76.09;102680.66;4805724;29;20472;-73
2022/04/29 03:50:41;;;;;;;17.83;8.52;;;;;;;8.16;76.18;102685.72;4805645;29;20035;-72
2022/04/29 03:53:06;;;;;;;17.60;9.15;;;;;;;8.21;75.75;102688.75;4806189;29;20035;-74
2022/04/29 03:55:35;;;;;;;17.48;9.35;;;;;;;8.16;76.15;102683.00;4824210;29;20383;-71
2022/04/29 03:58:02;;;;;;;17.95;9.57;;;;;;;8.13;76.81;102694.13;4823550;29;20461;-71
2022/04/29 04:00:32;;;;;;;13.00;8.80;;;;;;;8.15;76.01;102694.78;4822237;29;20026;-71
2022/04/29 04:02:58;;;;;;;15.93;9.35;;;;;;;8.10;76.56;102699.84;4823971;29;20462;-71
2022/04/29 04:05:24;;;;;;;17.13;9.23;;;;;;;8.04;76.18;102687.03;4789452;29;20411;-72
2022/04/29 04:07:49;;;;;;;22.35;9.48;;;;;;;8.02;76.17;102678.22;4805130;29;20038;-71
2022/04/29 04:10:15;;;;;;;16.27;9.43;;;;;;;8.04;76.22;102687.03;4805697;29;20035;-73
2022/04/29 04:12:51;;;;;;;14.95;8.77;;;;;;;8.01;75.97;102687.34;4805356;29;20472;-72
2022/04/29 04:15:21;;;;;;;17.55;9.20;;;;;;;8.05;76.48;102694.13;4805921;29;20053;-70
2022/04/29 04:17:47;;;;;;;15.35;8.63;;;;;;;8.08;76.08;102699.19;4805226;29;20051;-72
2022/04/29 04:20:14;;;;;;;19.65;9.10;;;;;;;8.04;76.32;102687.03;4805254;29;20035;-73
2022/04/29 04:22:39;;;;;;;18.23;9.30;;;;;;;8.05;76.57;102678.78;4789274;29;20458;-73
2022/04/29 04:25:06;;;;;;;18.75;9.80;;;;;;;7.98;76.48;102677.72;4819833;29;20058;-74
2022/04/29 04:27:32;;;;;;;17.17;9.25;;;;;;;8.01;76.76;102673.88;4823645;29;20037;-73
2022/04/29 04:29:58;;;;;;;23.67;9.98;;;;;;;7.99;76.04;102674.88;4823541;29;20125;-73
2022/04/29 04:32:25;;;;;;;20.25;10.27;;;;;;;8.04;76.62;102678.94;4823528;29;20046;-73
2022/04/29 04:34:53;;;;;;;17.05;10.15;;;;;;;8.01;76.00;102672.00;4796888;29;20049;-73
2022/04/29 04:37:23;;;;;;;17.23;11.13;;;;;;;7.96;76.92;102675.19;4811442;29;20034;-73
2022/04/29 04:39:49;;;;;;;14.70;9.63;;;;;;;8.00;76.63;102678.41;4794671;29;20077;-71
2022/04/29 04:42:15;;;;;;;18.00;10.98;;;;;;;7.96;77.00;102677.88;4811240;29;20035;-72
2022/04/29 04:44:40;;;;;;;20.75;10.35;;;;;;;7.92;76.16;102668.44;4822464;29;20035;-74
2022/04/29 04:47:06;;;;;;;16.27;9.80;;;;;;;7.91;76.50;102665.91;4829359;29;20042;-73
2022/04/29 04:49:32;;;;;;;22.27;10.50;;;;;;;7.94;76.12;102666.44;4829517;29;20467;-70
2022/04/29 04:51:57;;;;;;;19.63;10.70;;;;;;;7.87;76.31;102662.69;4829152;29;20034;-72
2022/04/29 04:54:22;;;;;;;16.55;10.55;;;;;;;7.93;76.71;102670.13;4819949;29;20120;-70
2022/04/29 04:56:48;;;;;;;18.23;9.93;;;;;;;7.90;76.33;102675.84;4811321;29;20042;-72
2022/04/29 04:59:13;;;;;;;18.15;9.98;;;;;;;7.89;77.35;102668.75;4810732;29;20042;-72
2022/04/29 05:01:38;;;;;;;17.42;10.82;;;;;;;7.85;76.11;102666.56;4800134;29;20045;-73
2022/04/29 05:04:04;;;;;;;18.95;10.38;;;;;;;7.90;76.98;102675.00;4816577;29;20460;-72
2022/04/29 05:06:29;;;;;;;18.27;10.35;;;;;;;7.90;76.67;102665.06;4812471;29;20066;-71
2022/04/29 05:08:54;;;;;;;18.70;11.43;;;;;;;7.92;76.70;102667.59;4828688;29;20030;-71
2022/04/29 05:11:20;;;;;;;20.42;10.75;;;;;;;7.95;76.64;102673.50;4829170;29;20050;-73
2022/04/29 05:13:45;;;;;;;18.35;10.65;;;;;;;7.91;77.12;102666.75;4824850;29;20041;-72
2022/04/29 05:16:10;;;;;;;20.30;10.80;;;;;;;7.90;76.41;102665.06;4810829;29;20360;-72
2022/04/29 05:18:37;;;;;;;17.60;10.82;;;;;;;7.88;76.74;102671.63;4810741;29;20066;-71
2022/04/29 05:21:02;;;;;;;18.95;10.65;;;;;;;7.93;76.52;102669.28;4810253;29;20039;-70
2022/04/29 05:23:28;;;;;;;19.98;10.82;;;;;;;7.91;76.53;102672.16;4811839;29;20171;-72
2022/04/29 05:25:53;;;;;;;21.33;11.10;;;;;;;7.82;76.41;102667.75;4812662;29;20042;-72
2022/04/29 05:28:18;;;;;;;16.13;10.90;;;;;;;7.74;77.78;102675.78;4812706;29;20471;-74
2022/04/29 05:30:44;;;;;;;19.15;11.70;;;;;;;7.78;77.20;102672.59;4824852;29;20037;-73
2022/04/29 05:33:10;;;;;;;16.17;11.50;;;;;;;7.79;77.17;102678.84;4783117;29;20108;-74
2022/04/29 05:35:36;;;;;;;21.45;11.27;;;;;;;7.80;77.37;102675.13;4812165;29;20046;-73
2022/04/29 05:38:02;;;;;;;18.33;10.98;;;;;;;7.83;76.77;102668.56;4810631;29;20038;-73
2022/04/29 05:43:11;;;;;;;19.95;11.50;;;;;;;7.88;76.43;102677.00;4810389;29;20531;-73
2022/04/29 05:45:37;;;;;;;21.42;11.75;;;;;;;7.90;76.29;102680.41;4827117;29;20034;-71
2022/04/29 05:48:02;;;;;;;26.88;12.18;;;;;;;7.88;77.20;102674.31;4809372;29;20045;-72
2022/04/29 05:50:29;;;;;;;20.08;11.52;;;;;;;7.82;76.48;102678.53;4825815;29;20034;-72
2022/04/29 05:52:54;;;;;;;20.60;11.95;;;;;;;7.81;76.80;102679.53;4809364;29;20045;-74
2022/04/29 05:55:19;;;;;;;18.50;11.48;;;;;;;7.88;76.88;102690.47;4810507;29;20050;-73
2022/04/29 05:57:44;;;;;;;22.17;11.52;;;;;;;7.91;77.09;102696.41;4807407;29;20118;-73
2022/04/29 06:00:10;;;;;;;22.38;12.15;;;;;;;7.88;76.52;102691.34;4807461;29;20034;-71
2022/04/29 06:02:38;;;;;;;20.70;12.43;;;;;;;7.90;77.14;102692.03;4774286;29;20080;-73
2022/04/29 06:05:04;;;;;;;19.05;12.00;;;;;;;7.97;76.33;102692.19;4820234;29;20139;-71
2022/04/29 06:07:30;;;;;;;24.60;11.98;;;;;;;8.04;76.60;102692.41;4800075;29;20483;-71
2022/04/29 06:09:55;;;;;;;22.55;12.18;;;;;;;8.06;76.54;102695.78;4825532;29;20037;-73
2022/04/29 06:12:20;;;;;;;20.42;11.82;;;;;;;8.05;76.15;102699.50;4825722;29;20026;-72
2022/04/29 06:14:45;;;;;;;23.55;11.88;;;;;;;8.11;76.30;102690.75;4825703;29;20031;-71
2022/04/29 06:17:12;;;;;;;25.98;12.88;;;;;;;8.13;76.30;102702.22;4823283;29;20038;-72
2022/04/29 06:19:37;;;;;;;25.42;13.85;;;;;;;8.15;77.08;102700.19;4776346;29;20480;-72
2022/04/29 06:22:04;;;;;;;27.65;14.88;;;;;;;8.13;76.34;102704.91;4790849;29;20122;-73
2022/04/29 06:24:30;;;;;;;22.63;13.45;;;;;;;8.19;76.29;102706.13;4807427;29;20058;-73
2022/04/29 06:26:55;;;;;;;20.75;12.82;;;;;;;8.26;75.87;102705.31;4807131;29;20074;-73
2022/04/29 06:29:20;;;;;;;22.13;12.27;;;;;;;8.22;75.46;102700.41;4824608;29;20034;-72
2022/04/29 06:31:45;;;;;;;22.80;12.30;;;;;;;8.23;76.02;102704.75;4809212;29;20489;-73
2022/04/29 06:34:11;;;;;;;25.17;12.10;;;;;;;8.17;75.74;102711.69;4825208;29;20544;-74
2022/04/29 06:36:36;;;;;;;21.73;12.32;;;;;;;8.16;76.26;102710.81;4825071;29;20041;-72
2022/04/29 06:39:01;;;;;;;32.03;12.48;;;;;;;8.17;76.17;102717.06;4809783;29;20045;-73
2022/04/29 06:41:27;;;;;;;22.48;13.35;;;;;;;8.08;76.44;102709.97;4807087;29;20062;-70
2022/04/29 06:43:53;;;;;;;24.67;12.75;;;;;;;8.15;76.31;102714.53;4807050;29;20380;-71
2022/04/29 06:46:19;;;;;;;22.83;12.57;;;;;;;8.18;76.61;102713.34;4806832;29;20035;-72
2022/04/29 06:48:45;;;;;;;21.30;12.18;;;;;;;8.24;76.44;102704.59;4813959;29;20045;-72
2022/04/29 06:51:11;;;;;;;24.08;12.50;;;;;;;8.26;75.77;102705.31;4824544;29;20089;-74
2022/04/29 06:53:39;;;;;;;21.13;12.60;;;;;;;8.29;76.26;102704.97;4808672;29;20038;-73
2022/04/29 06:56:05;;;;;;;27.30;13.13;;;;;;;8.36;76.41;102712.41;4824823;29;20130;-72
2022/04/29 06:58:31;;;;;;;19.83;12.32;;;;;;;8.39;76.13;102712.91;4820068;29;20034;-71
2022/04/29 07:00:56;;;;;;;23.83;12.80;;;;;;;8.42;76.61;102722.53;4813625;29;20039;-73
2022/04/29 07:03:21;;;;;;;21.00;12.77;;;;;;;8.45;76.09;102716.84;4806316;29;20115;-71
2022/04/29 07:05:47;;;;;;;20.88;12.50;;;;;;;8.54;76.28;102731.19;4806310;29;20035;-72
2022/04/29 07:08:13;;;;;;;23.30;13.20;;;;;;;8.61;75.53;102724.13;4806433;29;20027;-73
2022/04/29 07:10:40;;;;;;;26.02;12.85;;;;;;;8.61;75.80;102719.56;4813052;29;20115;-74
2022/04/29 07:13:05;;;;;;;26.30;13.63;;;;;;;8.61;75.23;102719.56;4813866;29;20037;-73
2022/04/29 07:15:31;;;;;;;25.75;12.85;;;;;;;8.68;75.10;102723.31;4812704;29;20039;-73
2022/04/29 07:17:56;;;;;;;23.30;12.43;;;;;;;8.73;74.74;102721.97;4806314;29;20090;-73
2022/04/29 07:20:22;;;;;;;25.17;13.85;;;;;;;8.77;75.35;102726.88;4805795;29;20039;-74
2022/04/29 07:22:47;;;;;;;23.20;12.73;;;;;;;8.78;75.11;102716.91;4806331;29;20031;-72
2022/04/29 07:25:13;;;;;;;26.35;13.82;;;;;;;8.80;74.99;102721.13;4805974;29;20035;-74
2022/04/29 07:27:40;;;;;;;25.98;13.32;;;;;;;8.93;75.89;102709.00;4790515;29;20054;-74
2022/04/29 07:30:07;;;;;;;21.40;12.77;;;;;;;9.01;74.86;102717.94;4808200;29;20043;-73
2022/04/29 07:32:32;;;;;;;27.48;13.50;;;;;;;8.98;74.36;102723.69;4806355;29;20466;-73
2022/04/29 07:43:12;;;;;;;25.98;13.48;;;;;;;9.25;73.86;102707.28;4815743;29;20104;-73
2022/04/29 07:45:38;;;;;;;29.70;14.02;;;;;;;9.39;73.85;102720.09;4796178;29;20228;-74
2022/04/29 07:48:05;;;;;;;28.15;13.48;;;;;;;9.47;73.64;102713.84;4823628;29;20617;-74
2022/04/29 07:50:31;;;;;;;21.92;13.10;;;;;;;9.56;72.91;102712.81;4799433;29;20035;-74
2022/04/29 07:52:58;;;;;;;22.73;13.90;;;;;;;9.65;73.08;102719.88;4823645;29;20042;-74
2022/04/29 07:55:24;;;;;;;21.75;13.38;;;;;;;9.73;73.26;102719.84;4823632;29;20034;-74
2022/04/29 07:57:49;;;;;;;22.90;13.85;;;;;;;9.82;73.56;102717.13;4823807;29;20038;-74
2022/04/29 08:00:15;;;;;;;23.70;13.48;;;;;;;9.84;73.16;102715.09;4807409;29;20041;-73
2022/04/29 08:02:41;;;;;;;23.83;13.45;;;;;;;9.85;72.19;102727.59;4803712;29;20042;-73
2022/04/29 08:05:07;;;;;;;31.38;14.07;;;;;;;9.84;72.62;102734.84;4823824;29;20063;-73
2022/04/29 08:07:33;;;;;;;23.27;13.40;;;;;;;9.85;73.09;102725.72;4811695;29;20035;-74
2022/04/29 08:09:59;;;;;;;29.20;14.13;;;;;;;9.83;72.44;102718.78;4804988;29;20446;-73
2022/04/29 08:12:26;;;;;;;24.27;13.70;;;;;;;9.88;72.19;102724.53;4805765;29;20125;-74
2022/04/29 08:14:52;;;;;;;23.10;13.93;;;;;;;9.97;72.72;102722.66;4805318;29;20423;-74
2022/04/29 08:17:18;;;;;;;24.58;14.43;;;;;;;10.00;72.55;102722.31;4805864;29;20640;-74
2022/04/29 08:19:44;;;;;;;26.73;14.68;;;;;;;9.97;72.39;102728.06;4805460;29;20027;-73
2022/04/29 08:22:09;;;;;;;21.05;13.88;;;;;;;10.08;71.83;102720.41;4805130;29;20038;-73
2022/04/29 08:24:34;;;;;;;24.33;13.80;;;;;;;10.12;72.40;102726.31;4805479;29;20031;-73
2022/04/29 08:26:59;;;;;;;24.17;14.15;;;;;;;10.14;71.22;102742.38;4805564;29;20434;-73
2022/04/29 08:29:25;;;;;;;28.38;13.73;;;;;;;10.04;72.09;102732.59;4798363;29;20035;-73
2022/04/29 08:31:50;;;;;;;23.98;14.32;;;;;;;10.13;72.37;102735.25;4823921;29;20409;-73
2022/04/29 08:34:17;;;;;;;23.77;14.10;;;;;;;10.14;72.14;102739.66;4823399;29;20468;-73
2022/04/29 08:36:43;;;;;;;25.33;14.52;;;;;;;10.17;72.76;102734.72;4823566;29;20042;-73
2022/04/29 08:39:08;;;;;;;27.25;14.82;;;;;;;10.23;73.12;102733.19;4823393;29;20084;-73
2022/04/29 08:41:36;;;;;;;25.98;13.32;;;;;;;10.26;71.74;102739.06;4807183;29;20125;-74
2022/04/29 08:44:03;;;;;;;22.83;14.18;;;;;;;10.20;71.59;102733.53;4811012;29;20035;-73
2022/04/29 08:46:30;;;;;;;25.13;13.82;;;;;;;10.19;71.60;102726.44;4805236;29;20042;-74
2022/04/29 08:48:56;;;;;;;26.40;14.45;;;;;;;10.24;72.74;102735.72;4805294;29;20031;-74
2022/04/29 08:51:21;;;;;;;28.17;14.60;;;;;;;10.27;71.93;102727.25;4805314;29;20035;-74
2022/04/29 08:53:48;;;;;;;21.85;14.18;;;;;;;10.40;71.31;102724.00;4805241;29;20062;-73
2022/04/29 08:59:00;;;;;;;24.92;15.05;;;;;;;10.53;70.57;102714.47;4819451;29;20505;-74
2022/04/29 09:01:26;;;;;;;29.65;14.68;;;;;;;10.60;71.65;102718.16;4820779;29;20031;-74
2022/04/29 09:03:52;;;;;;;25.42;14.77;;;;;;;10.62;71.89;102706.09;4823275;29;20078;-73
2022/04/29 09:06:17;;;;;;;28.45;14.32;;;;;;;10.64;71.07;102709.47;4806559;29;20041;-74
2022/04/29 09:08:45;;;;;;;23.13;13.85;;;;;;;10.65;70.34;102715.72;4823294;29;20455;-74
2022/04/29 09:11:20;;;;;;;20.08;13.07;;;;;;;10.71;71.33;102725.00;4823114;29;20037;-74
2022/04/29 09:13:45;;;;;;;22.58;13.65;;;;;;;10.72;71.44;102729.38;4822210;29;20427;-74
2022/04/29 09:16:12;;;;;;;21.27;13.32;;;;;;;10.77;70.73;102727.00;4822957;29;20030;-74
2022/04/29 09:18:53;;;;;;;24.80;13.90;;;;;;;10.78;70.02;102726.81;4822870;29;20697;-74
2022/04/29 09:21:30;;;;;;;24.92;14.25;;;;;;;10.86;70.78;102731.31;4824855;29;20042;-74
2022/04/29 09:23:57;;;;;;;23.75;13.88;;;;;;;10.95;70.68;102732.09;4801272;29;20047;-74
2022/04/29 09:26:33;;;;;;;25.52;13.65;;;;;;;10.98;70.97;102737.16;4792100;29;20039;-74
2022/04/29 09:29:16;;;;;;;27.52;14.27;;;;;;;10.94;70.55;102733.94;4808380;29;20103;-74
2022/04/29 09:31:53;;;;;;;23.35;13.23;;;;;;;10.98;71.03;102739.88;4791902;29;20130;-73
2022/04/29 09:34:19;;;;;;;28.23;14.30;;;;;;;11.03;70.74;102734.72;4808072;29;20039;-73
2022/04/29 09:36:45;;;;;;;26.45;13.65;;;;;;;11.02;69.88;102743.91;4791625;29;20445;-74
2022/04/29 09:39:30;;;;;;;23.38;13.68;;;;;;;11.02;70.45;102749.31;4808957;29;20058;-74
2022/04/29 09:42:00;;;;;;;25.48;13.13;;;;;;;10.94;69.93;102741.25;4791979;29;20031;-74
2022/04/29 09:44:34;;;;;;;29.48;13.57;;;;;;;10.86;70.46;102741.31;4791885;29;20047;-74
2022/04/29 09:47:09;;;;;;;25.08;13.20;;;;;;;10.91;70.80;102736.19;4807940;29;20035;-74
2022/04/29 09:49:34;;;;;;;25.08;13.45;;;;;;;10.97;71.30;102739.00;4791713;29;20430;-74
2022/04/29 09:52:00;;;;;;;23.65;14.23;;;;;;;10.99;70.90;102738.81;4809795;29;20049;-74
2022/04/29 09:54:27;;;;;;;26.25;13.77;;;;;;;10.98;70.69;102731.75;4825774;29;20070;-74
2022/04/29 09:57:15;;;;;;;24.08;13.43;;;;;;;10.99;70.44;102730.69;4825868;29;20034;-74
2022/04/29 09:59:40;;;;;;;21.38;13.13;;;;;;;10.96;70.36;102731.91;4809685;29;20498;-74
2022/04/29 10:02:07;;;;;;;22.83;13.50;;;;;;;10.86;70.60;102723.19;4823449;29;20045;-74
2022/04/29 10:04:37;;;;;;;22.50;13.25;;;;;;;10.90;71.39;102718.25;4825615;29;20038;-76
2022/04/29 10:07:04;;;;;;;44.17;18.73;;;;;;;10.96;71.28;102722.94;4824229;29;20031;-74
2022/04/29 10:09:32;;;;;;;24.10;13.73;;;;;;;10.96;70.95;102728.34;4825613;29;20042;-73
2022/04/29 10:11:59;;;;;;;23.30;13.40;;;;;;;10.94;70.97;102725.81;4825570;29;20042;-73
2022/04/29 10:14:27;;;;;;;22.98;13.20;;;;;;;10.96;71.03;102725.66;4825478;29;20380;-75
2022/04/29 10:22:32;;;;;;;20.98;13.13;;;;;;;11.02;71.96;102708.69;4811446;29;20137;-75
2022/04/29 10:24:58;;;;;;;24.95;13.45;;;;;;;11.07;72.02;102703.56;4791264;29;20039;-75
2022/04/29 10:27:24;;;;;;;23.02;13.93;;;;;;;11.12;71.39;102698.41;4807081;29;20038;-74
2022/04/29 10:29:50;;;;;;;27.60;14.30;;;;;;;11.20;71.30;102704.78;4807154;29;20519;-75
2022/04/29 10:32:15;;;;;;;26.08;13.75;;;;;;;11.17;70.46;102703.28;4806293;29;20039;-75
2022/04/29 10:34:40;;;;;;;22.98;12.93;;;;;;;11.20;70.51;102702.09;4807086;29;20452;-75
2022/04/29 10:37:14;;;;;;;26.60;13.90;;;;;;;11.28;70.63;102704.72;4824581;29;20034;-76
2022/04/29 10:39:41;;;;;;;27.52;13.52;;;;;;;11.30;70.02;102708.09;4825244;29;20050;-75
2022/04/29 10:42:11;;;;;;;27.33;13.55;;;;;;;11.37;70.68;102714.47;4825262;29;20062;-75
2022/04/29 10:44:59;;;;;;;20.45;13.07;;;;;;;11.36;69.19;102707.34;4808804;29;20129;-75
2022/04/29 10:47:47;;;;;;;27.05;12.23;;;;;;;11.32;70.01;102698.75;4824909;29;20091;-76
2022/04/29 10:50:30;;;;;;;22.10;13.05;;;;;;;11.38;69.84;102702.56;4806029;29;20043;-75
2022/04/29 10:53:01;;;;;;;25.95;13.05;;;;;;;11.41;70.19;102710.34;4806768;29;20070;-75
2022/04/29 10:55:26;;;;;;;26.30;13.38;;;;;;;11.45;69.43;102698.09;4806745;29;20039;-76
2022/04/29 10:57:51;;;;;;;23.98;13.15;;;;;;;11.51;69.84;102683.81;4806868;29;20045;-75
2022/04/29 11:00:18;;;;;;;22.73;12.40;;;;;;;11.58;69.98;102685.75;4806525;29;20192;-75
2022/04/29 11:02:44;;;;;;;24.38;12.85;;;;;;;11.62;69.23;102687.09;4805031;29;20045;-75
2022/04/29 11:05:32;;;;;;;27.42;12.88;;;;;;;11.67;69.53;102684.63;4817484;29;20073;-75
2022/04/29 11:08:07;;;;;;;20.02;12.05;;;;;;;11.61;69.29;102682.69;4824880;29;20038;-75
2022/04/29 11:10:53;;;;;;;19.50;12.20;;;;;;;11.61;69.22;102685.38;4824318;29;20517;-75
2022/04/29 11:13:26;;;;;;;31.27;13.15;;;;;;;11.59;69.57;102679.31;4793461;29;20445;-75
2022/04/29 11:15:51;;;;;;;26.05;12.00;;;;;;;11.60;68.38;102679.13;4808725;29;20175;-75
2022/04/29 11:18:20;;;;;;;22.63;11.65;;;;;;;11.62;68.90;102679.78;4814479;29;20134;-75
2022/04/29 11:20:52;;;;;;;25.15;12.25;;;;;;;11.67;69.22;102684.63;4806442;29;20066;-75
2022/04/29 11:26:17;;;;;;;21.90;11.68;;;;;;;11.80;69.37;102681.28;4806234;29;20076;-75
2022/04/29 11:28:42;;;;;;;34.45;12.32;;;;;;;11.88;68.33;102675.75;4807200;29;20047;-74
2022/04/29 11:31:09;;;;;;;29.00;12.45;;;;;;;11.95;67.97;102675.88;4789972;29;20090;-75
2022/04/29 11:33:36;;;;;;;26.23;11.80;;;;;;;12.00;67.26;102676.13;4789688;29;20464;-75
2022/04/29 11:36:07;;;;;;;20.23;11.80;;;;;;;12.10;67.45;102675.84;4789941;29;20042;-75
2022/04/29 11:38:47;;;;;;;21.70;11.38;;;;;;;12.23;68.03;102671.41;4805800;29;20039;-74